sensor_id;sensor_type;location;lat;lon;timestamp;temperature;humidity
4904;DHT22;2467;48.142;11.616;2022-08-16T00:00:38;20.70;99.90
4904;DHT22;2467;48.142;11.616;2022-08-16T00:01:10;20.70;99.90
4904;DHT22;2467;48.142;11.616;2022-08-16T00:01:42;20.70;99.90
4904;DHT22;2467;48.142;11.616;2022-08-16T00:02:15;20.70;99.90
4904;DHT22;2467;48.142;11.616;2022-08-16T00:02:47;20.60;99.90
4904;DHT22;2467;48.142;11.616;2022-08-16T00:03:22;20.60;99.90
4904;DHT22;2467;48.142;11.616;2022-08-16T00:03:54;20.60;99.90
4904;DHT22;2467;48.142;11.616;2022-08-16T00:04:27;20.60;99.90
4904;DHT22;2467;48.142;11.616;2022-08-16T00:05:01;20.50;99.90
4904;DHT22;2467;48.142;11.616;2022-08-16T00:05:33;20.50;99.90
4904;DHT22;2467;48.142;11.616;2022-08-16T00:06:19;20.60;99.90
4904;DHT22;2467;48.142;11.616;2022-08-16T00:06:55;20.60;99.90
4904;DHT22;2467;48.142;11.616;2022-08-16T00:07:27;20.60;99.90
4904;DHT22;2467;48.142;11.616;2022-08-16T00:08:00;20.60;99.90
4904;DHT22;2467;48.142;11.616;2022-08-16T00:08:35;20.70;99.90
4904;DHT22;2467;48.142;11.616;2022-08-16T00:09:08;20.70;99.90
4904;DHT22;2467;48.142;11.616;2022-08-16T00:09:41;20.70;99.90
4904;DHT22;2467;48.142;11.616;2022-08-16T00:10:15;20.80;99.90
4904;DHT22;2467;48.142;11.616;2022-08-16T00:10:51;20.90;99.90
4904;DHT22;2467;48.142;11.616;2022-08-16T00:11:24;20.90;99.90
4904;DHT22;2467;48.142;11.616;2022-08-16T00:11:57;20.90;99.90
4904;DHT22;2467;48.142;11.616;2022-08-16T00:12:29;21.00;99.90
4904;DHT22;2467;48.142;11.616;2022-08-16T00:13:05;21.00;99.90
4904;DHT22;2467;48.142;11.616;2022-08-16T00:13:38;21.00;99.90
4904;DHT22;2467;48.142;11.616;2022-08-16T00:14:15;21.00;99.90
4904;DHT22;2467;48.142;11.616;2022-08-16T00:14:49;21.10;99.90
4904;DHT22;2467;48.142;11.616;2022-08-16T00:15:35;21.10;99.90
4904;DHT22;2467;48.142;11.616;2022-08-16T00:16:27;21.10;99.90
4904;DHT22;2467;48.142;11.616;2022-08-16T00:17:20;21.10;99.90
4904;DHT22;2467;48.142;11.616;2022-08-16T00:17:52;21.10;99.90
4904;DHT22;2467;48.142;11.616;2022-08-16T00:18:28;21.10;99.90
4904;DHT22;2467;48.142;11.616;2022-08-16T00:19:03;21.20;99.90
4904;DHT22;2467;48.142;11.616;2022-08-16T00:19:35;21.20;99.90
4904;DHT22;2467;48.142;11.616;2022-08-16T00:20:13;21.20;99.90
4904;DHT22;2467;48.142;11.616;2022-08-16T00:20:46;21.20;99.90
4904;DHT22;2467;48.142;11.616;2022-08-16T00:21:21;21.20;99.90
4904;DHT22;2467;48.142;11.616;2022-08-16T00:21:55;21.20;99.90
4904;DHT22;2467;48.142;11.616;2022-08-16T00:22:34;21.10;99.90
4904;DHT22;2467;48.142;11.616;2022-08-16T00:23:07;21.10;99.90
4904;DHT22;2467;48.142;11.616;2022-08-16T00:23:41;21.10;99.90
4904;DHT22;2467;48.142;11.616;2022-08-16T00:24:17;21.10;99.90
4904;DHT22;2467;48.142;11.616;2022-08-16T00:25:05;21.10;99.90
4904;DHT22;2467;48.142;11.616;2022-08-16T00:25:41;21.00;99.90
4904;DHT22;2467;48.142;11.616;2022-08-16T00:26:34;21.00;99.90
4904;DHT22;2467;48.142;11.616;2022-08-16T00:27:15;20.90;99.90
4904;DHT22;2467;48.142;11.616;2022-08-16T00:27:48;20.90;99.90
4904;DHT22;2467;48.142;11.616;2022-08-16T00:28:20;20.90;99.90
4904;DHT22;2467;48.142;11.616;2022-08-16T00:28:59;20.80;99.90
4904;DHT22;2467;48.142;11.616;2022-08-16T00:29:32;20.80;99.90
4904;DHT22;2467;48.142;11.616;2022-08-16T00:30:07;20.80;99.90
4904;DHT22;2467;48.142;11.616;2022-08-16T00:30:59;20.80;99.90
4904;DHT22;2467;48.142;11.616;2022-08-16T00:31:33;20.80;99.90
4904;DHT22;2467;48.142;11.616;2022-08-16T00:32:25;20.70;99.90
4904;DHT22;2467;48.142;11.616;2022-08-16T00:33:03;20.60;99.90
4904;DHT22;2467;48.142;11.616;2022-08-16T00:33:36;20.50;99.90
4904;DHT22;2467;48.142;11.616;2022-08-16T00:34:08;20.60;99.90
4904;DHT22;2467;48.142;11.616;2022-08-16T00:34:49;20.50;99.90
4904;DHT22;2467;48.142;11.616;2022-08-16T00:35:27;20.40;99.90
4904;DHT22;2467;48.142;11.616;2022-08-16T00:36:06;20.40;99.90
4904;DHT22;2467;48.142;11.616;2022-08-16T00:36:39;20.40;99.90
4904;DHT22;2467;48.142;11.616;2022-08-16T00:37:20;20.60;99.90
4904;DHT22;2467;48.142;11.616;2022-08-16T00:37:55;20.40;99.90
4904;DHT22;2467;48.142;11.616;2022-08-16T00:38:30;20.40;99.90
4904;DHT22;2467;48.142;11.616;2022-08-16T00:39:15;20.40;99.90
4904;DHT22;2467;48.142;11.616;2022-08-16T00:39:48;20.40;99.90
4904;DHT22;2467;48.142;11.616;2022-08-16T00:40:33;20.40;99.90
4904;DHT22;2467;48.142;11.616;2022-08-16T00:41:07;20.40;99.90
4904;DHT22;2467;48.142;11.616;2022-08-16T00:41:42;20.40;99.90
4904;DHT22;2467;48.142;11.616;2022-08-16T00:42:17;20.40;99.90
4904;DHT22;2467;48.142;11.616;2022-08-16T00:43:06;20.40;99.90
4904;DHT22;2467;48.142;11.616;2022-08-16T00:43:45;20.30;99.90
4904;DHT22;2467;48.142;11.616;2022-08-16T00:44:21;20.40;99.90
4904;DHT22;2467;48.142;11.616;2022-08-16T00:45:07;20.40;99.90
4904;DHT22;2467;48.142;11.616;2022-08-16T00:45:47;20.40;99.90
4904;DHT22;2467;48.142;11.616;2022-08-16T00:46:33;20.40;99.90
4904;DHT22;2467;48.142;11.616;2022-08-16T00:47:11;20.50;99.90
4904;DHT22;2467;48.142;11.616;2022-08-16T00:47:47;20.50;99.90
4904;DHT22;2467;48.142;11.616;2022-08-16T00:48:20;20.60;99.90
4904;DHT22;2467;48.142;11.616;2022-08-16T00:49:06;20.60;99.90
4904;DHT22;2467;48.142;11.616;2022-08-16T00:49:50;20.60;99.90
4904;DHT22;2467;48.142;11.616;2022-08-16T00:50:33;20.60;99.90
4904;DHT22;2467;48.142;11.616;2022-08-16T00:51:07;20.60;99.90
4904;DHT22;2467;48.142;11.616;2022-08-16T00:51:47;20.70;99.90
4904;DHT22;2467;48.142;11.616;2022-08-16T00:52:27;20.60;99.90
4904;DHT22;2467;48.142;11.616;2022-08-16T00:53:01;20.60;99.90
4904;DHT22;2467;48.142;11.616;2022-08-16T00:53:35;20.70;99.90
4904;DHT22;2467;48.142;11.616;2022-08-16T00:54:08;20.70;99.90
4904;DHT22;2467;48.142;11.616;2022-08-16T00:54:42;20.70;99.90
4904;DHT22;2467;48.142;11.616;2022-08-16T00:55:15;20.70;99.90
4904;DHT22;2467;48.142;11.616;2022-08-16T00:55:51;20.70;99.90
4904;DHT22;2467;48.142;11.616;2022-08-16T00:56:26;20.70;99.90
4904;DHT22;2467;48.142;11.616;2022-08-16T00:57:20;20.80;99.90
4904;DHT22;2467;48.142;11.616;2022-08-16T00:57:55;20.70;99.90
4904;DHT22;2467;48.142;11.616;2022-08-16T00:58:33;20.80;99.90
4904;DHT22;2467;48.142;11.616;2022-08-16T00:59:10;20.80;99.90
4904;DHT22;2467;48.142;11.616;2022-08-16T00:59:45;20.80;99.90
4904;DHT22;2467;48.142;11.616;2022-08-16T01:00:30;20.80;99.90
4904;DHT22;2467;48.142;11.616;2022-08-16T01:01:05;20.80;99.90
4904;DHT22;2467;48.142;11.616;2022-08-16T01:01:40;20.80;99.90
4904;DHT22;2467;48.142;11.616;2022-08-16T01:02:13;20.80;99.90
4904;DHT22;2467;48.142;11.616;2022-08-16T01:03:05;20.80;99.90
4904;DHT22;2467;48.142;11.616;2022-08-16T01:03:46;20.80;99.90
4904;DHT22;2467;48.142;11.616;2022-08-16T01:04:21;20.80;99.90
4904;DHT22;2467;48.142;11.616;2022-08-16T01:05:01;20.80;99.90
4904;DHT22;2467;48.142;11.616;2022-08-16T01:05:43;20.80;99.90
4904;DHT22;2467;48.142;11.616;2022-08-16T01:06:17;20.80;99.90
4904;DHT22;2467;48.142;11.616;2022-08-16T01:07:09;20.90;99.90
4904;DHT22;2467;48.142;11.616;2022-08-16T01:07:50;20.90;99.90
4904;DHT22;2467;48.142;11.616;2022-08-16T01:08:25;20.90;99.90
4904;DHT22;2467;48.142;11.616;2022-08-16T01:09:07;20.90;99.90
4904;DHT22;2467;48.142;11.616;2022-08-16T01:09:41;20.80;99.90
4904;DHT22;2467;48.142;11.616;2022-08-16T01:10:13;20.80;99.90
4904;DHT22;2467;48.142;11.616;2022-08-16T01:10:47;20.80;99.90
4904;DHT22;2467;48.142;11.616;2022-08-16T01:11:21;20.90;99.90
4904;DHT22;2467;48.142;11.616;2022-08-16T01:11:54;20.90;99.90
4904;DHT22;2467;48.142;11.616;2022-08-16T01:12:27;20.80;99.90
4904;DHT22;2467;48.142;11.616;2022-08-16T01:13:07;20.90;99.90
4904;DHT22;2467;48.142;11.616;2022-08-16T01:13:46;20.90;99.90
4904;DHT22;2467;48.142;11.616;2022-08-16T01:14:23;20.90;99.90
4904;DHT22;2467;48.142;11.616;2022-08-16T01:15:01;20.90;99.90
4904;DHT22;2467;48.142;11.616;2022-08-16T01:15:36;20.90;99.90
4904;DHT22;2467;48.142;11.616;2022-08-16T01:16:16;20.90;99.90
4904;DHT22;2467;48.142;11.616;2022-08-16T01:16:51;20.90;99.90
4904;DHT22;2467;48.142;11.616;2022-08-16T01:17:25;20.90;99.90
4904;DHT22;2467;48.142;11.616;2022-08-16T01:18:09;20.90;99.90
4904;DHT22;2467;48.142;11.616;2022-08-16T01:19:09;20.90;99.90
4904;DHT22;2467;48.142;11.616;2022-08-16T01:19:49;20.90;99.90
4904;DHT22;2467;48.142;11.616;2022-08-16T01:20:24;20.90;99.90
4904;DHT22;2467;48.142;11.616;2022-08-16T01:21:10;20.90;99.90
4904;DHT22;2467;48.142;11.616;2022-08-16T01:21:52;20.90;99.90
4904;DHT22;2467;48.142;11.616;2022-08-16T01:22:30;20.90;99.90
4904;DHT22;2467;48.142;11.616;2022-08-16T01:23:26;20.90;99.90
4904;DHT22;2467;48.142;11.616;2022-08-16T01:24:27;20.90;99.90
4904;DHT22;2467;48.142;11.616;2022-08-16T01:25:25;20.80;99.90
4904;DHT22;2467;48.142;11.616;2022-08-16T01:26:05;20.70;99.90
4904;DHT22;2467;48.142;11.616;2022-08-16T01:27:00;20.60;99.90
4904;DHT22;2467;48.142;11.616;2022-08-16T01:27:37;20.60;99.90
4904;DHT22;2467;48.142;11.616;2022-08-16T01:28:14;20.50;99.90
4904;DHT22;2467;48.142;11.616;2022-08-16T01:28:51;20.40;99.90
4904;DHT22;2467;48.142;11.616;2022-08-16T01:29:28;20.40;99.90
4904;DHT22;2467;48.142;11.616;2022-08-16T01:30:25;20.30;99.90
4904;DHT22;2467;48.142;11.616;2022-08-16T01:30:58;20.30;99.90
4904;DHT22;2467;48.142;11.616;2022-08-16T01:31:30;20.20;99.90
4904;DHT22;2467;48.142;11.616;2022-08-16T01:32:08;20.30;99.90
4904;DHT22;2467;48.142;11.616;2022-08-16T01:32:40;20.20;99.90
4904;DHT22;2467;48.142;11.616;2022-08-16T01:33:13;20.20;99.90
4904;DHT22;2467;48.142;11.616;2022-08-16T01:33:46;20.20;99.90
4904;DHT22;2467;48.142;11.616;2022-08-16T01:34:21;20.20;99.90
4904;DHT22;2467;48.142;11.616;2022-08-16T01:34:57;20.20;99.90
4904;DHT22;2467;48.142;11.616;2022-08-16T01:35:33;20.20;99.90
4904;DHT22;2467;48.142;11.616;2022-08-16T01:36:08;20.20;99.90
4904;DHT22;2467;48.142;11.616;2022-08-16T01:36:44;20.20;99.90
4904;DHT22;2467;48.142;11.616;2022-08-16T01:37:29;20.20;99.90
4904;DHT22;2467;48.142;11.616;2022-08-16T01:38:16;20.20;99.90
4904;DHT22;2467;48.142;11.616;2022-08-16T01:38:50;20.20;99.90
4904;DHT22;2467;48.142;11.616;2022-08-16T01:39:29;20.10;99.90
4904;DHT22;2467;48.142;11.616;2022-08-16T01:40:06;20.10;99.90
4904;DHT22;2467;48.142;11.616;2022-08-16T01:40:38;20.10;99.90
4904;DHT22;2467;48.142;11.616;2022-08-16T01:41:15;20.10;99.90
4904;DHT22;2467;48.142;11.616;2022-08-16T01:41:51;20.10;99.90
4904;DHT22;2467;48.142;11.616;2022-08-16T01:42:24;20.10;99.90
4904;DHT22;2467;48.142;11.616;2022-08-16T01:42:57;20.10;99.90
4904;DHT22;2467;48.142;11.616;2022-08-16T01:43:29;20.10;99.90
4904;DHT22;2467;48.142;11.616;2022-08-16T01:44:02;20.10;99.90
4904;DHT22;2467;48.142;11.616;2022-08-16T01:44:38;20.10;99.90
4904;DHT22;2467;48.142;11.616;2022-08-16T01:45:10;20.10;99.90
4904;DHT22;2467;48.142;11.616;2022-08-16T01:45:43;20.10;99.90
4904;DHT22;2467;48.142;11.616;2022-08-16T01:46:21;20.10;99.90
4904;DHT22;2467;48.142;11.616;2022-08-16T01:47:09;20.10;99.90
4904;DHT22;2467;48.142;11.616;2022-08-16T01:47:43;20.10;99.90
4904;DHT22;2467;48.142;11.616;2022-08-16T01:48:23;20.20;99.90
4904;DHT22;2467;48.142;11.616;2022-08-16T01:49:02;20.20;99.90
4904;DHT22;2467;48.142;11.616;2022-08-16T01:49:36;20.10;99.90
4904;DHT22;2467;48.142;11.616;2022-08-16T01:50:30;20.10;99.90
4904;DHT22;2467;48.142;11.616;2022-08-16T01:51:25;20.10;99.90
4904;DHT22;2467;48.142;11.616;2022-08-16T01:52:00;20.10;99.90
4904;DHT22;2467;48.142;11.616;2022-08-16T01:52:35;20.10;99.90
4904;DHT22;2467;48.142;11.616;2022-08-16T01:53:09;20.00;99.90
4904;DHT22;2467;48.142;11.616;2022-08-16T01:53:42;20.00;99.90
4904;DHT22;2467;48.142;11.616;2022-08-16T01:54:14;19.90;99.90
4904;DHT22;2467;48.142;11.616;2022-08-16T01:55:03;20.00;99.90
4904;DHT22;2467;48.142;11.616;2022-08-16T01:55:37;20.00;99.90
4904;DHT22;2467;48.142;11.616;2022-08-16T01:56:11;19.90;99.90
4904;DHT22;2467;48.142;11.616;2022-08-16T01:56:55;19.90;99.90
4904;DHT22;2467;48.142;11.616;2022-08-16T01:57:28;19.80;99.90
4904;DHT22;2467;48.142;11.616;2022-08-16T01:58:02;19.80;99.90
4904;DHT22;2467;48.142;11.616;2022-08-16T01:58:34;19.80;99.90
4904;DHT22;2467;48.142;11.616;2022-08-16T01:59:10;19.80;99.90
4904;DHT22;2467;48.142;11.616;2022-08-16T01:59:47;19.80;99.90
4904;DHT22;2467;48.142;11.616;2022-08-16T02:00:26;19.80;99.90
4904;DHT22;2467;48.142;11.616;2022-08-16T02:01:00;19.80;99.90
4904;DHT22;2467;48.142;11.616;2022-08-16T02:01:34;19.80;99.90
4904;DHT22;2467;48.142;11.616;2022-08-16T02:02:06;19.80;99.90
4904;DHT22;2467;48.142;11.616;2022-08-16T02:02:58;19.90;99.90
4904;DHT22;2467;48.142;11.616;2022-08-16T02:03:33;19.90;99.90
4904;DHT22;2467;48.142;11.616;2022-08-16T02:04:05;19.90;99.90
4904;DHT22;2467;48.142;11.616;2022-08-16T02:04:42;19.90;99.90
4904;DHT22;2467;48.142;11.616;2022-08-16T02:05:25;19.90;99.90
4904;DHT22;2467;48.142;11.616;2022-08-16T02:06:01;19.90;99.90
4904;DHT22;2467;48.142;11.616;2022-08-16T02:06:39;19.90;99.90
4904;DHT22;2467;48.142;11.616;2022-08-16T02:07:19;19.90;99.90
4904;DHT22;2467;48.142;11.616;2022-08-16T02:07:54;19.90;99.90
4904;DHT22;2467;48.142;11.616;2022-08-16T02:08:26;20.00;99.90
4904;DHT22;2467;48.142;11.616;2022-08-16T02:09:05;20.10;99.90
4904;DHT22;2467;48.142;11.616;2022-08-16T02:09:43;20.00;99.90
4904;DHT22;2467;48.142;11.616;2022-08-16T02:10:31;20.00;99.90
4904;DHT22;2467;48.142;11.616;2022-08-16T02:11:06;20.00;99.90
4904;DHT22;2467;48.142;11.616;2022-08-16T02:11:43;20.00;99.90
4904;DHT22;2467;48.142;11.616;2022-08-16T02:12:24;20.00;99.90
4904;DHT22;2467;48.142;11.616;2022-08-16T02:13:15;20.00;99.90
4904;DHT22;2467;48.142;11.616;2022-08-16T02:13:58;20.00;99.90
4904;DHT22;2467;48.142;11.616;2022-08-16T02:14:30;20.00;99.90
4904;DHT22;2467;48.142;11.616;2022-08-16T02:15:03;20.10;99.90
4904;DHT22;2467;48.142;11.616;2022-08-16T02:15:36;20.10;99.90
4904;DHT22;2467;48.142;11.616;2022-08-16T02:16:14;20.10;99.90
4904;DHT22;2467;48.142;11.616;2022-08-16T02:16:49;20.10;99.90
4904;DHT22;2467;48.142;11.616;2022-08-16T02:17:22;20.10;99.90
4904;DHT22;2467;48.142;11.616;2022-08-16T02:17:55;20.10;99.90
4904;DHT22;2467;48.142;11.616;2022-08-16T02:18:28;20.10;99.90
4904;DHT22;2467;48.142;11.616;2022-08-16T02:19:00;20.20;99.90
4904;DHT22;2467;48.142;11.616;2022-08-16T02:19:46;20.20;99.90
4904;DHT22;2467;48.142;11.616;2022-08-16T02:20:34;20.30;99.90
4904;DHT22;2467;48.142;11.616;2022-08-16T02:21:10;20.30;99.90
4904;DHT22;2467;48.142;11.616;2022-08-16T02:21:49;20.30;99.90
4904;DHT22;2467;48.142;11.616;2022-08-16T02:22:40;20.40;99.90
4904;DHT22;2467;48.142;11.616;2022-08-16T02:23:12;20.40;99.90
4904;DHT22;2467;48.142;11.616;2022-08-16T02:23:47;20.40;99.90
4904;DHT22;2467;48.142;11.616;2022-08-16T02:24:26;20.50;99.90
4904;DHT22;2467;48.142;11.616;2022-08-16T02:25:13;20.50;99.90
4904;DHT22;2467;48.142;11.616;2022-08-16T02:25:48;20.50;99.90
4904;DHT22;2467;48.142;11.616;2022-08-16T02:26:24;20.50;99.90
4904;DHT22;2467;48.142;11.616;2022-08-16T02:26:57;20.50;99.90
4904;DHT22;2467;48.142;11.616;2022-08-16T02:27:29;20.50;99.90
4904;DHT22;2467;48.142;11.616;2022-08-16T02:28:02;20.60;99.90
4904;DHT22;2467;48.142;11.616;2022-08-16T02:28:40;20.60;99.90
4904;DHT22;2467;48.142;11.616;2022-08-16T02:29:18;20.60;99.90
4904;DHT22;2467;48.142;11.616;2022-08-16T02:29:51;20.60;99.90
4904;DHT22;2467;48.142;11.616;2022-08-16T02:30:36;20.60;99.90
4904;DHT22;2467;48.142;11.616;2022-08-16T02:31:21;20.70;99.90
4904;DHT22;2467;48.142;11.616;2022-08-16T02:32:15;20.60;99.90
4904;DHT22;2467;48.142;11.616;2022-08-16T02:33:08;20.70;99.90
4904;DHT22;2467;48.142;11.616;2022-08-16T02:33:43;20.70;99.90
4904;DHT22;2467;48.142;11.616;2022-08-16T02:34:21;20.70;99.90
4904;DHT22;2467;48.142;11.616;2022-08-16T02:35:11;20.70;99.90
4904;DHT22;2467;48.142;11.616;2022-08-16T02:35:46;20.70;99.90
4904;DHT22;2467;48.142;11.616;2022-08-16T02:36:29;20.70;99.90
4904;DHT22;2467;48.142;11.616;2022-08-16T02:37:21;20.70;99.90
4904;DHT22;2467;48.142;11.616;2022-08-16T02:37:54;20.70;99.90
4904;DHT22;2467;48.142;11.616;2022-08-16T02:38:28;20.70;99.90
4904;DHT22;2467;48.142;11.616;2022-08-16T02:39:04;20.70;99.90
4904;DHT22;2467;48.142;11.616;2022-08-16T02:39:37;20.70;99.90
4904;DHT22;2467;48.142;11.616;2022-08-16T02:40:13;20.70;99.90
4904;DHT22;2467;48.142;11.616;2022-08-16T02:40:48;20.70;99.90
4904;DHT22;2467;48.142;11.616;2022-08-16T02:41:21;20.70;99.90
4904;DHT22;2467;48.142;11.616;2022-08-16T02:41:53;20.70;99.90
4904;DHT22;2467;48.142;11.616;2022-08-16T02:42:25;20.80;99.90
4904;DHT22;2467;48.142;11.616;2022-08-16T02:42:58;20.80;99.90
4904;DHT22;2467;48.142;11.616;2022-08-16T02:43:34;20.80;99.90
4904;DHT22;2467;48.142;11.616;2022-08-16T02:44:09;20.80;99.90
4904;DHT22;2467;48.142;11.616;2022-08-16T02:44:44;20.80;99.90
4904;DHT22;2467;48.142;11.616;2022-08-16T02:45:17;20.80;99.90
4904;DHT22;2467;48.142;11.616;2022-08-16T02:45:49;20.80;99.90
4904;DHT22;2467;48.142;11.616;2022-08-16T02:46:23;20.80;99.90
4904;DHT22;2467;48.142;11.616;2022-08-16T02:47:04;20.90;99.90
4904;DHT22;2467;48.142;11.616;2022-08-16T02:47:37;20.80;99.90
4904;DHT22;2467;48.142;11.616;2022-08-16T02:48:29;20.80;99.90
4904;DHT22;2467;48.142;11.616;2022-08-16T02:49:04;20.80;99.90
4904;DHT22;2467;48.142;11.616;2022-08-16T02:49:38;20.80;99.90
4904;DHT22;2467;48.142;11.616;2022-08-16T02:50:30;20.80;99.90
4904;DHT22;2467;48.142;11.616;2022-08-16T02:51:23;20.70;99.90
4904;DHT22;2467;48.142;11.616;2022-08-16T02:51:55;20.70;99.90
4904;DHT22;2467;48.142;11.616;2022-08-16T02:52:28;20.70;99.90
4904;DHT22;2467;48.142;11.616;2022-08-16T02:53:03;20.70;99.90
4904;DHT22;2467;48.142;11.616;2022-08-16T02:53:36;20.70;99.90
4904;DHT22;2467;48.142;11.616;2022-08-16T02:54:11;20.70;99.90
4904;DHT22;2467;48.142;11.616;2022-08-16T02:54:47;20.70;99.90
4904;DHT22;2467;48.142;11.616;2022-08-16T02:55:26;20.70;99.90
4904;DHT22;2467;48.142;11.616;2022-08-16T02:56:15;20.70;99.90
4904;DHT22;2467;48.142;11.616;2022-08-16T02:56:47;20.70;99.90
4904;DHT22;2467;48.142;11.616;2022-08-16T02:57:20;20.70;99.90
4904;DHT22;2467;48.142;11.616;2022-08-16T02:57:53;20.70;99.90
4904;DHT22;2467;48.142;11.616;2022-08-16T02:58:25;20.70;99.90
4904;DHT22;2467;48.142;11.616;2022-08-16T02:58:58;20.70;99.90
4904;DHT22;2467;48.142;11.616;2022-08-16T02:59:31;20.70;99.90
4904;DHT22;2467;48.142;11.616;2022-08-16T03:00:14;20.70;99.90
4904;DHT22;2467;48.142;11.616;2022-08-16T03:01:05;20.60;99.90
4904;DHT22;2467;48.142;11.616;2022-08-16T03:01:54;20.60;99.90
4904;DHT22;2467;48.142;11.616;2022-08-16T03:02:27;20.60;99.90
4904;DHT22;2467;48.142;11.616;2022-08-16T03:03:03;20.60;99.90
4904;DHT22;2467;48.142;11.616;2022-08-16T03:03:41;20.60;99.90
4904;DHT22;2467;48.142;11.616;2022-08-16T03:04:34;20.60;99.90
4904;DHT22;2467;48.142;11.616;2022-08-16T03:05:24;20.60;99.90
4904;DHT22;2467;48.142;11.616;2022-08-16T03:06:01;20.50;99.90
4904;DHT22;2467;48.142;11.616;2022-08-16T03:06:54;20.50;99.90
4904;DHT22;2467;48.142;11.616;2022-08-16T03:07:28;20.50;99.90
4904;DHT22;2467;48.142;11.616;2022-08-16T03:08:07;20.40;99.90
4904;DHT22;2467;48.142;11.616;2022-08-16T03:09:01;20.40;99.90
4904;DHT22;2467;48.142;11.616;2022-08-16T03:09:34;20.40;99.90
4904;DHT22;2467;48.142;11.616;2022-08-16T03:10:09;20.40;99.90
4904;DHT22;2467;48.142;11.616;2022-08-16T03:10:44;20.40;99.90
4904;DHT22;2467;48.142;11.616;2022-08-16T03:11:20;20.40;99.90
4904;DHT22;2467;48.142;11.616;2022-08-16T03:11:52;20.40;99.90
4904;DHT22;2467;48.142;11.616;2022-08-16T03:12:25;20.40;99.90
4904;DHT22;2467;48.142;11.616;2022-08-16T03:13:07;20.40;99.90
4904;DHT22;2467;48.142;11.616;2022-08-16T03:13:43;20.50;99.90
4904;DHT22;2467;48.142;11.616;2022-08-16T03:14:18;20.40;99.90
4904;DHT22;2467;48.142;11.616;2022-08-16T03:14:55;20.50;99.90
4904;DHT22;2467;48.142;11.616;2022-08-16T03:15:27;20.40;99.90
4904;DHT22;2467;48.142;11.616;2022-08-16T03:16:00;20.40;99.90
4904;DHT22;2467;48.142;11.616;2022-08-16T03:16:32;20.40;99.90
4904;DHT22;2467;48.142;11.616;2022-08-16T03:17:13;20.40;99.90
4904;DHT22;2467;48.142;11.616;2022-08-16T03:17:47;20.40;99.90
4904;DHT22;2467;48.142;11.616;2022-08-16T03:18:24;20.40;99.90
4904;DHT22;2467;48.142;11.616;2022-08-16T03:19:10;20.40;99.90
4904;DHT22;2467;48.142;11.616;2022-08-16T03:19:44;20.40;99.90
4904;DHT22;2467;48.142;11.616;2022-08-16T03:20:30;20.40;99.90
4904;DHT22;2467;48.142;11.616;2022-08-16T03:21:05;20.40;99.90
4904;DHT22;2467;48.142;11.616;2022-08-16T03:21:40;20.30;99.90
4904;DHT22;2467;48.142;11.616;2022-08-16T03:22:12;20.40;99.90
4904;DHT22;2467;48.142;11.616;2022-08-16T03:22:58;20.40;99.90
4904;DHT22;2467;48.142;11.616;2022-08-16T03:23:33;20.30;99.90
4904;DHT22;2467;48.142;11.616;2022-08-16T03:24:07;20.30;99.90
4904;DHT22;2467;48.142;11.616;2022-08-16T03:25:02;20.30;99.90
4904;DHT22;2467;48.142;11.616;2022-08-16T03:25:38;20.30;99.90
4904;DHT22;2467;48.142;11.616;2022-08-16T03:26:16;20.20;99.90
4904;DHT22;2467;48.142;11.616;2022-08-16T03:26:50;20.20;99.90
4904;DHT22;2467;48.142;11.616;2022-08-16T03:27:22;20.10;99.90
4904;DHT22;2467;48.142;11.616;2022-08-16T03:27:54;20.10;99.90
4904;DHT22;2467;48.142;11.616;2022-08-16T03:28:30;20.10;99.90
4904;DHT22;2467;48.142;11.616;2022-08-16T03:29:03;20.10;99.90
4904;DHT22;2467;48.142;11.616;2022-08-16T03:29:38;20.00;99.90
4904;DHT22;2467;48.142;11.616;2022-08-16T03:30:27;20.00;99.90
4904;DHT22;2467;48.142;11.616;2022-08-16T03:30:59;20.00;99.90
4904;DHT22;2467;48.142;11.616;2022-08-16T03:31:33;20.00;99.90
4904;DHT22;2467;48.142;11.616;2022-08-16T03:32:11;20.00;99.90
4904;DHT22;2467;48.142;11.616;2022-08-16T03:32:45;20.00;99.90
4904;DHT22;2467;48.142;11.616;2022-08-16T03:33:22;20.00;99.90
4904;DHT22;2467;48.142;11.616;2022-08-16T03:33:54;20.00;99.90
4904;DHT22;2467;48.142;11.616;2022-08-16T03:34:26;20.00;99.90
4904;DHT22;2467;48.142;11.616;2022-08-16T03:35:00;20.00;99.90
4904;DHT22;2467;48.142;11.616;2022-08-16T03:35:34;19.90;99.90
4904;DHT22;2467;48.142;11.616;2022-08-16T03:36:07;19.90;99.90
4904;DHT22;2467;48.142;11.616;2022-08-16T03:37:00;19.90;99.90
4904;DHT22;2467;48.142;11.616;2022-08-16T03:37:32;19.80;99.90
4904;DHT22;2467;48.142;11.616;2022-08-16T03:38:25;19.90;99.90
4904;DHT22;2467;48.142;11.616;2022-08-16T03:39:05;19.80;99.90
4904;DHT22;2467;48.142;11.616;2022-08-16T03:39:45;19.70;99.90
4904;DHT22;2467;48.142;11.616;2022-08-16T03:40:17;19.70;99.90
4904;DHT22;2467;48.142;11.616;2022-08-16T03:41:04;19.60;99.90
4904;DHT22;2467;48.142;11.616;2022-08-16T03:41:57;19.60;99.90
4904;DHT22;2467;48.142;11.616;2022-08-16T03:42:31;19.50;99.90
4904;DHT22;2467;48.142;11.616;2022-08-16T03:43:05;19.50;99.90
4904;DHT22;2467;48.142;11.616;2022-08-16T03:43:52;19.50;99.90
4904;DHT22;2467;48.142;11.616;2022-08-16T03:44:26;19.50;99.90
4904;DHT22;2467;48.142;11.616;2022-08-16T03:45:18;19.50;99.90
4904;DHT22;2467;48.142;11.616;2022-08-16T03:45:52;19.60;99.90
4904;DHT22;2467;48.142;11.616;2022-08-16T03:46:26;19.60;99.90
4904;DHT22;2467;48.142;11.616;2022-08-16T03:47:19;19.60;99.90
4904;DHT22;2467;48.142;11.616;2022-08-16T03:47:52;19.60;99.90
4904;DHT22;2467;48.142;11.616;2022-08-16T03:48:35;19.70;99.90
4904;DHT22;2467;48.142;11.616;2022-08-16T03:49:11;19.70;99.90
4904;DHT22;2467;48.142;11.616;2022-08-16T03:49:44;19.70;99.90
4904;DHT22;2467;48.142;11.616;2022-08-16T03:50:22;19.70;99.90
4904;DHT22;2467;48.142;11.616;2022-08-16T03:50:57;19.80;99.90
4904;DHT22;2467;48.142;11.616;2022-08-16T03:51:31;19.80;99.90
4904;DHT22;2467;48.142;11.616;2022-08-16T03:52:04;19.80;99.90
4904;DHT22;2467;48.142;11.616;2022-08-16T03:52:36;19.80;99.90
4904;DHT22;2467;48.142;11.616;2022-08-16T03:53:14;19.90;99.90
4904;DHT22;2467;48.142;11.616;2022-08-16T03:53:47;19.90;99.90
4904;DHT22;2467;48.142;11.616;2022-08-16T03:54:32;19.90;99.90
4904;DHT22;2467;48.142;11.616;2022-08-16T03:55:07;19.90;99.90
4904;DHT22;2467;48.142;11.616;2022-08-16T03:55:45;20.00;99.90
4904;DHT22;2467;48.142;11.616;2022-08-16T03:56:23;20.00;99.90
4904;DHT22;2467;48.142;11.616;2022-08-16T03:56:59;20.00;99.90
4904;DHT22;2467;48.142;11.616;2022-08-16T03:57:31;20.10;99.90
4904;DHT22;2467;48.142;11.616;2022-08-16T03:58:07;20.10;99.90
4904;DHT22;2467;48.142;11.616;2022-08-16T03:58:40;20.10;99.90
4904;DHT22;2467;48.142;11.616;2022-08-16T03:59:15;20.10;99.90
4904;DHT22;2467;48.142;11.616;2022-08-16T03:59:47;20.10;99.90
4904;DHT22;2467;48.142;11.616;2022-08-16T04:00:24;20.20;99.90
4904;DHT22;2467;48.142;11.616;2022-08-16T04:01:11;20.10;99.90
4904;DHT22;2467;48.142;11.616;2022-08-16T04:01:46;20.10;99.90
4904;DHT22;2467;48.142;11.616;2022-08-16T04:02:24;20.10;99.90
4904;DHT22;2467;48.142;11.616;2022-08-16T04:03:04;20.10;99.90
4904;DHT22;2467;48.142;11.616;2022-08-16T04:03:39;20.10;99.90